sensor_id;sensor_type;location;lat;lon;timestamp;pressure;altitude;pressure_sealevel;temperature
63220;BMP180;49320;52.512;13.448;2023-06-10T00:00:44;101217.00;;;23.20
63220;BMP180;49320;52.512;13.448;2023-06-10T00:03:11;101211.00;;;23.20
63220;BMP180;49320;52.512;13.448;2023-06-10T00:05:39;101203.00;;;23.20
63220;BMP180;49320;52.512;13.448;2023-06-10T00:08:06;101213.00;;;23.20
63220;BMP180;49320;52.512;13.448;2023-06-10T00:10:34;101216.00;;;23.10
63220;BMP180;49320;52.512;13.448;2023-06-10T00:13:04;101222.00;;;23.10
63220;BMP180;49320;52.512;13.448;2023-06-10T00:15:31;101208.00;;;23.10
63220;BMP180;49320;52.512;13.448;2023-06-10T00:17:58;101211.00;;;23.00
63220;BMP180;49320;52.512;13.448;2023-06-10T00:20:25;101203.00;;;23.00
63220;BMP180;49320;52.512;13.448;2023-06-10T00:22:52;101199.00;;;23.00
63220;BMP180;49320;52.512;13.448;2023-06-10T00:25:19;101204.00;;;22.90
63220;BMP180;49320;52.512;13.448;2023-06-10T00:27:46;101195.00;;;22.90
63220;BMP180;49320;52.512;13.448;2023-06-10T00:30:13;101192.00;;;22.90
63220;BMP180;49320;52.512;13.448;2023-06-10T00:32:40;101181.00;;;22.90
63220;BMP180;49320;52.512;13.448;2023-06-10T00:35:07;101204.00;;;22.90
63220;BMP180;49320;52.512;13.448;2023-06-10T00:37:35;101210.00;;;22.90
63220;BMP180;49320;52.512;13.448;2023-06-10T00:40:04;101199.00;;;22.90
63220;BMP180;49320;52.512;13.448;2023-06-10T00:42:32;101202.00;;;22.90
63220;BMP180;49320;52.512;13.448;2023-06-10T00:44:58;101203.00;;;22.90
63220;BMP180;49320;52.512;13.448;2023-06-10T00:47:27;101194.00;;;22.80
63220;BMP180;49320;52.512;13.448;2023-06-10T00:49:54;101199.00;;;22.80
63220;BMP180;49320;52.512;13.448;2023-06-10T00:52:27;101193.00;;;22.70
63220;BMP180;49320;52.512;13.448;2023-06-10T00:54:54;101196.00;;;22.70
63220;BMP180;49320;52.512;13.448;2023-06-10T00:57:21;101199.00;;;22.70
63220;BMP180;49320;52.512;13.448;2023-06-10T00:59:49;101202.00;;;22.70
63220;BMP180;49320;52.512;13.448;2023-06-10T01:02:16;101199.00;;;22.60
63220;BMP180;49320;52.512;13.448;2023-06-10T01:04:44;101207.00;;;22.60
63220;BMP180;49320;52.512;13.448;2023-06-10T01:07:28;101211.00;;;22.60
63220;BMP180;49320;52.512;13.448;2023-06-10T01:13:02;101210.00;;;22.60
63220;BMP180;49320;52.512;13.448;2023-06-10T01:15:31;101213.00;;;22.50
63220;BMP180;49320;52.512;13.448;2023-06-10T01:18:01;101213.00;;;22.50
63220;BMP180;49320;52.512;13.448;2023-06-10T01:20:31;101217.00;;;22.50
63220;BMP180;49320;52.512;13.448;2023-06-10T01:23:00;101214.00;;;22.50
63220;BMP180;49320;52.512;13.448;2023-06-10T01:25:28;101220.00;;;22.50
63220;BMP180;49320;52.512;13.448;2023-06-10T01:28:17;101219.00;;;22.50
63220;BMP180;49320;52.512;13.448;2023-06-10T01:33:46;101217.00;;;22.50
63220;BMP180;49320;52.512;13.448;2023-06-10T01:36:17;101216.00;;;22.40
63220;BMP180;49320;52.512;13.448;2023-06-10T01:38:47;101218.00;;;22.40
63220;BMP180;49320;52.512;13.448;2023-06-10T01:41:19;101220.00;;;22.40
63220;BMP180;49320;52.512;13.448;2023-06-10T01:43:48;101206.00;;;22.40
63220;BMP180;49320;52.512;13.448;2023-06-10T01:46:16;101215.00;;;22.30
63220;BMP180;49320;52.512;13.448;2023-06-10T01:48:47;101210.00;;;22.30
63220;BMP180;49320;52.512;13.448;2023-06-10T01:51:14;101216.00;;;22.30
63220;BMP180;49320;52.512;13.448;2023-06-10T01:53:40;101211.00;;;22.30
63220;BMP180;49320;52.512;13.448;2023-06-10T01:56:07;101215.00;;;22.20
63220;BMP180;49320;52.512;13.448;2023-06-10T01:58:34;101219.00;;;22.20
63220;BMP180;49320;52.512;13.448;2023-06-10T02:01:01;101217.00;;;22.20
63220;BMP180;49320;52.512;13.448;2023-06-10T02:03:28;101228.00;;;22.20
63220;BMP180;49320;52.512;13.448;2023-06-10T02:05:55;101215.00;;;22.20
63220;BMP180;49320;52.512;13.448;2023-06-10T02:08:22;101222.00;;;22.20
63220;BMP180;49320;52.512;13.448;2023-06-10T02:10:49;101215.00;;;22.20
63220;BMP180;49320;52.512;13.448;2023-06-10T02:13:16;101220.00;;;22.20
63220;BMP180;49320;52.512;13.448;2023-06-10T02:15:43;101216.00;;;22.20
63220;BMP180;49320;52.512;13.448;2023-06-10T02:18:10;101220.00;;;22.10
63220;BMP180;49320;52.512;13.448;2023-06-10T02:20:38;101225.00;;;22.10
63220;BMP180;49320;52.512;13.448;2023-06-10T02:23:05;101214.00;;;22.10
63220;BMP180;49320;52.512;13.448;2023-06-10T02:25:32;101223.00;;;22.10
63220;BMP180;49320;52.512;13.448;2023-06-10T02:27:59;101234.00;;;22.10
63220;BMP180;49320;52.512;13.448;2023-06-10T02:30:27;101232.00;;;22.00
63220;BMP180;49320;52.512;13.448;2023-06-10T02:32:54;101224.00;;;22.00
63220;BMP180;49320;52.512;13.448;2023-06-10T02:35:22;101216.00;;;22.00
63220;BMP180;49320;52.512;13.448;2023-06-10T02:37:50;101227.00;;;21.90
63220;BMP180;49320;52.512;13.448;2023-06-10T02:40:17;101226.00;;;21.90
63220;BMP180;49320;52.512;13.448;2023-06-10T02:42:44;101222.00;;;21.90
63220;BMP180;49320;52.512;13.448;2023-06-10T02:45:11;101226.00;;;21.90
63220;BMP180;49320;52.512;13.448;2023-06-10T02:47:38;101218.00;;;21.90
63220;BMP180;49320;52.512;13.448;2023-06-10T02:50:07;101213.00;;;21.90
63220;BMP180;49320;52.512;13.448;2023-06-10T02:52:34;101220.00;;;21.90
63220;BMP180;49320;52.512;13.448;2023-06-10T02:55:01;101222.00;;;21.90
63220;BMP180;49320;52.512;13.448;2023-06-10T02:57:27;101228.00;;;21.90
63220;BMP180;49320;52.512;13.448;2023-06-10T02:59:54;101224.00;;;21.80
63220;BMP180;49320;52.512;13.448;2023-06-10T03:02:21;101233.00;;;21.80
63220;BMP180;49320;52.512;13.448;2023-06-10T03:04:48;101226.00;;;21.80
63220;BMP180;49320;52.512;13.448;2023-06-10T03:07:17;101211.00;;;21.80
63220;BMP180;49320;52.512;13.448;2023-06-10T03:09:45;101220.00;;;21.80
63220;BMP180;49320;52.512;13.448;2023-06-10T03:12:12;101231.00;;;21.80
63220;BMP180;49320;52.512;13.448;2023-06-10T03:14:38;101223.00;;;21.80
63220;BMP180;49320;52.512;13.448;2023-06-10T03:17:05;101222.00;;;21.80
63220;BMP180;49320;52.512;13.448;2023-06-10T03:19:32;101227.00;;;21.80
63220;BMP180;49320;52.512;13.448;2023-06-10T03:22:16;101224.00;;;21.80
63220;BMP180;49320;52.512;13.448;2023-06-10T03:24:43;101224.00;;;21.80
63220;BMP180;49320;52.512;13.448;2023-06-10T03:27:13;101219.00;;;21.80
63220;BMP180;49320;52.512;13.448;2023-06-10T03:29:40;101220.00;;;21.80
63220;BMP180;49320;52.512;13.448;2023-06-10T03:32:07;101218.00;;;21.80
63220;BMP180;49320;52.512;13.448;2023-06-10T03:34:34;101229.00;;;21.80
63220;BMP180;49320;52.512;13.448;2023-06-10T03:37:01;101229.00;;;21.80
63220;BMP180;49320;52.512;13.448;2023-06-10T03:39:28;101239.00;;;21.80
63220;BMP180;49320;52.512;13.448;2023-06-10T03:41:58;101233.00;;;21.90
63220;BMP180;49320;52.512;13.448;2023-06-10T03:44:25;101235.00;;;21.90
63220;BMP180;49320;52.512;13.448;2023-06-10T03:46:55;101236.00;;;21.90
63220;BMP180;49320;52.512;13.448;2023-06-10T03:49:23;101240.00;;;21.90
63220;BMP180;49320;52.512;13.448;2023-06-10T03:51:53;101236.00;;;21.90
63220;BMP180;49320;52.512;13.448;2023-06-10T03:54:20;101237.00;;;22.00
63220;BMP180;49320;52.512;13.448;2023-06-10T03:56:47;101243.00;;;22.00
63220;BMP180;49320;52.512;13.448;2023-06-10T03:59:14;101249.00;;;22.00
63220;BMP180;49320;52.512;13.448;2023-06-10T04:01:41;101238.00;;;22.00
63220;BMP180;49320;52.512;13.448;2023-06-10T04:04:13;101256.00;;;22.00
63220;BMP180;49320;52.512;13.448;2023-06-10T04:06:40;101253.00;;;22.00
63220;BMP180;49320;52.512;13.448;2023-06-10T04:09:07;101242.00;;;22.00
63220;BMP180;49320;52.512;13.448;2023-06-10T04:11:34;101246.00;;;22.10
63220;BMP180;49320;52.512;13.448;2023-06-10T04:14:01;101254.00;;;22.10
63220;BMP180;49320;52.512;13.448;2023-06-10T04:16:28;101252.00;;;22.10
63220;BMP180;49320;52.512;13.448;2023-06-10T04:18:55;101255.00;;;22.10
63220;BMP180;49320;52.512;13.448;2023-06-10T04:21:22;101249.00;;;22.20
63220;BMP180;49320;52.512;13.448;2023-06-10T04:23:49;101247.00;;;22.20
63220;BMP180;49320;52.512;13.448;2023-06-10T04:26:16;101249.00;;;22.30
63220;BMP180;49320;52.512;13.448;2023-06-10T04:28:44;101244.00;;;22.30
63220;BMP180;49320;52.512;13.448;2023-06-10T04:31:11;101242.00;;;22.40
63220;BMP180;49320;52.512;13.448;2023-06-10T04:33:38;101249.00;;;22.40
63220;BMP180;49320;52.512;13.448;2023-06-10T04:36:05;101247.00;;;22.40
63220;BMP180;49320;52.512;13.448;2023-06-10T04:38:33;101255.00;;;22.40
63220;BMP180;49320;52.512;13.448;2023-06-10T04:41:00;101259.00;;;22.40
63220;BMP180;49320;52.512;13.448;2023-06-10T04:43:27;101269.00;;;22.40
63220;BMP180;49320;52.512;13.448;2023-06-10T04:45:55;101269.00;;;22.50
63220;BMP180;49320;52.512;13.448;2023-06-10T04:48:22;101261.00;;;22.50
63220;BMP180;49320;52.512;13.448;2023-06-10T04:50:50;101264.00;;;22.50
63220;BMP180;49320;52.512;13.448;2023-06-10T04:53:17;101267.00;;;22.60
63220;BMP180;49320;52.512;13.448;2023-06-10T04:55:45;101268.00;;;22.60
63220;BMP180;49320;52.512;13.448;2023-06-10T04:58:12;101267.00;;;22.70
63220;BMP180;49320;52.512;13.448;2023-06-10T05:00:40;101280.00;;;22.80
63220;BMP180;49320;52.512;13.448;2023-06-10T05:03:07;101263.00;;;22.90
63220;BMP180;49320;52.512;13.448;2023-06-10T05:05:34;101285.00;;;23.00
63220;BMP180;49320;52.512;13.448;2023-06-10T05:08:01;101273.00;;;23.00
63220;BMP180;49320;52.512;13.448;2023-06-10T05:10:28;101281.00;;;23.10
63220;BMP180;49320;52.512;13.448;2023-06-10T05:12:58;101283.00;;;23.30
63220;BMP180;49320;52.512;13.448;2023-06-10T05:15:25;101277.00;;;23.30
63220;BMP180;49320;52.512;13.448;2023-06-10T05:17:52;101281.00;;;23.50
63220;BMP180;49320;52.512;13.448;2023-06-10T05:20:19;101287.00;;;23.60
63220;BMP180;49320;52.512;13.448;2023-06-10T05:22:46;101283.00;;;23.80
63220;BMP180;49320;52.512;13.448;2023-06-10T05:25:13;101283.00;;;23.90
63220;BMP180;49320;52.512;13.448;2023-06-10T05:27:40;101287.00;;;24.20
63220;BMP180;49320;52.512;13.448;2023-06-10T05:30:10;101287.00;;;24.40
63220;BMP180;49320;52.512;13.448;2023-06-10T05:32:37;101287.00;;;24.70
63220;BMP180;49320;52.512;13.448;2023-06-10T05:35:04;101286.00;;;25.00
63220;BMP180;49320;52.512;13.448;2023-06-10T05:37:34;101285.00;;;25.30
63220;BMP180;49320;52.512;13.448;2023-06-10T05:40:04;101286.00;;;25.60
63220;BMP180;49320;52.512;13.448;2023-06-10T05:42:31;101282.00;;;25.80
63220;BMP180;49320;52.512;13.448;2023-06-10T05:44:58;101288.00;;;26.10
63220;BMP180;49320;52.512;13.448;2023-06-10T05:47:25;101284.00;;;26.30
63220;BMP180;49320;52.512;13.448;2023-06-10T05:49:52;101289.00;;;26.50
63220;BMP180;49320;52.512;13.448;2023-06-10T05:52:19;101286.00;;;26.60
63220;BMP180;49320;52.512;13.448;2023-06-10T05:54:46;101289.00;;;26.80
63220;BMP180;49320;52.512;13.448;2023-06-10T05:57:13;101290.00;;;27.00
63220;BMP180;49320;52.512;13.448;2023-06-10T05:59:39;101303.00;;;27.10
63220;BMP180;49320;52.512;13.448;2023-06-10T06:02:07;101284.00;;;27.20
63220;BMP180;49320;52.512;13.448;2023-06-10T06:04:35;101298.00;;;27.30
63220;BMP180;49320;52.512;13.448;2023-06-10T06:07:02;101296.00;;;27.40
63220;BMP180;49320;52.512;13.448;2023-06-10T06:09:28;101304.00;;;27.40
63220;BMP180;49320;52.512;13.448;2023-06-10T06:11:55;101302.00;;;27.50
63220;BMP180;49320;52.512;13.448;2023-06-10T06:14:22;101308.00;;;27.50
63220;BMP180;49320;52.512;13.448;2023-06-10T06:16:49;101302.00;;;27.60
63220;BMP180;49320;52.512;13.448;2023-06-10T06:19:17;101309.00;;;27.70
63220;BMP180;49320;52.512;13.448;2023-06-10T06:21:44;101308.00;;;27.70
63220;BMP180;49320;52.512;13.448;2023-06-10T06:24:11;101312.00;;;27.80
63220;BMP180;49320;52.512;13.448;2023-06-10T06:26:37;101325.00;;;27.80
63220;BMP180;49320;52.512;13.448;2023-06-10T06:29:04;101312.00;;;27.80
63220;BMP180;49320;52.512;13.448;2023-06-10T06:31:31;101313.00;;;27.90
63220;BMP180;49320;52.512;13.448;2023-06-10T06:33:59;101316.00;;;28.00
63220;BMP180;49320;52.512;13.448;2023-06-10T06:36:26;101314.00;;;28.10
63220;BMP180;49320;52.512;13.448;2023-06-10T06:38:53;101323.00;;;28.20
63220;BMP180;49320;52.512;13.448;2023-06-10T06:41:20;101326.00;;;28.30
63220;BMP180;49320;52.512;13.448;2023-06-10T06:43:48;101320.00;;;28.50
63220;BMP180;49320;52.512;13.448;2023-06-10T06:46:15;101330.00;;;28.70
63220;BMP180;49320;52.512;13.448;2023-06-10T06:48:43;101333.00;;;28.80
63220;BMP180;49320;52.512;13.448;2023-06-10T06:51:11;101341.00;;;28.90
63220;BMP180;49320;52.512;13.448;2023-06-10T06:53:38;101336.00;;;29.00
63220;BMP180;49320;52.512;13.448;2023-06-10T06:56:12;101343.00;;;29.00
63220;BMP180;49320;52.512;13.448;2023-06-10T06:58:39;101338.00;;;29.00
63220;BMP180;49320;52.512;13.448;2023-06-10T07:01:06;101341.00;;;29.00
63220;BMP180;49320;52.512;13.448;2023-06-10T07:03:33;101336.00;;;29.10
63220;BMP180;49320;52.512;13.448;2023-06-10T07:06:01;101336.00;;;29.10
63220;BMP180;49320;52.512;13.448;2023-06-10T07:08:27;101332.00;;;29.20
63220;BMP180;49320;52.512;13.448;2023-06-10T07:10:54;101342.00;;;29.30
63220;BMP180;49320;52.512;13.448;2023-06-10T07:13:21;101342.00;;;29.30
63220;BMP180;49320;52.512;13.448;2023-06-10T07:15:48;101347.00;;;29.40
63220;BMP180;49320;52.512;13.448;2023-06-10T07:18:15;101342.00;;;29.40
63220;BMP180;49320;52.512;13.448;2023-06-10T07:20:43;101348.00;;;29.40
63220;BMP180;49320;52.512;13.448;2023-06-10T07:23:10;101347.00;;;29.40
63220;BMP180;49320;52.512;13.448;2023-06-10T07:25:37;101352.00;;;29.50
63220;BMP180;49320;52.512;13.448;2023-06-10T07:28:04;101347.00;;;29.60
63220;BMP180;49320;52.512;13.448;2023-06-10T07:30:31;101351.00;;;29.60
63220;BMP180;49320;52.512;13.448;2023-06-10T07:32:58;101359.00;;;29.70
63220;BMP180;49320;52.512;13.448;2023-06-10T07:35:25;101359.00;;;29.80
63220;BMP180;49320;52.512;13.448;2023-06-10T07:37:52;101364.00;;;29.90
63220;BMP180;49320;52.512;13.448;2023-06-10T07:40:19;101372.00;;;29.90
63220;BMP180;49320;52.512;13.448;2023-06-10T07:42:46;101363.00;;;29.90
63220;BMP180;49320;52.512;13.448;2023-06-10T07:45:13;101364.00;;;30.00
63220;BMP180;49320;52.512;13.448;2023-06-10T07:47:39;101369.00;;;29.90
63220;BMP180;49320;52.512;13.448;2023-06-10T07:50:07;101368.00;;;29.90
63220;BMP180;49320;52.512;13.448;2023-06-10T07:52:34;101371.00;;;29.80
63220;BMP180;49320;52.512;13.448;2023-06-10T07:55:01;101377.00;;;29.70
63220;BMP180;49320;52.512;13.448;2023-06-10T07:57:28;101378.00;;;29.70
63220;BMP180;49320;52.512;13.448;2023-06-10T07:59:55;101373.00;;;29.80
63220;BMP180;49320;52.512;13.448;2023-06-10T08:02:24;101366.00;;;29.80
63220;BMP180;49320;52.512;13.448;2023-06-10T08:04:51;101376.00;;;29.90
63220;BMP180;49320;52.512;13.448;2023-06-10T08:07:18;101378.00;;;29.90
63220;BMP180;49320;52.512;13.448;2023-06-10T08:09:45;101364.00;;;29.90
63220;BMP180;49320;52.512;13.448;2023-06-10T08:12:12;101375.00;;;30.00
63220;BMP180;49320;52.512;13.448;2023-06-10T08:14:39;101365.00;;;30.00
63220;BMP180;49320;52.512;13.448;2023-06-10T08:17:06;101369.00;;;30.00
63220;BMP180;49320;52.512;13.448;2023-06-10T08:19:33;101371.00;;;30.10
63220;BMP180;49320;52.512;13.448;2023-06-10T08:22:00;101376.00;;;30.30
63220;BMP180;49320;52.512;13.448;2023-06-10T08:24:27;101368.00;;;30.40
63220;BMP180;49320;52.512;13.448;2023-06-10T08:26:54;101374.00;;;30.60
63220;BMP180;49320;52.512;13.448;2023-06-10T08:29:23;101378.00;;;30.80
63220;BMP180;49320;52.512;13.448;2023-06-10T08:31:50;101378.00;;;30.90
63220;BMP180;49320;52.512;13.448;2023-06-10T08:34:16;101376.00;;;31.00
63220;BMP180;49320;52.512;13.448;2023-06-10T08:36:43;101376.00;;;31.10
63220;BMP180;49320;52.512;13.448;2023-06-10T08:39:12;101380.00;;;31.10
63220;BMP180;49320;52.512;13.448;2023-06-10T08:41:43;101380.00;;;31.30
63220;BMP180;49320;52.512;13.448;2023-06-10T08:44:22;101382.00;;;31.40
63220;BMP180;49320;52.512;13.448;2023-06-10T08:46:59;101382.00;;;31.60
63220;BMP180;49320;52.512;13.448;2023-06-10T08:49:30;101396.00;;;31.80
63220;BMP180;49320;52.512;13.448;2023-06-10T08:52:02;101399.00;;;32.00
63220;BMP180;49320;52.512;13.448;2023-06-10T08:54:34;101401.00;;;32.10
63220;BMP180;49320;52.512;13.448;2023-06-10T08:57:05;101396.00;;;32.20
63220;BMP180;49320;52.512;13.448;2023-06-10T08:59:33;101398.00;;;32.30
63220;BMP180;49320;52.512;13.448;2023-06-10T09:02:02;101397.00;;;32.50
63220;BMP180;49320;52.512;13.448;2023-06-10T09:04:30;101401.00;;;32.70
63220;BMP180;49320;52.512;13.448;2023-06-10T09:06:58;101404.00;;;32.70
63220;BMP180;49320;52.512;13.448;2023-06-10T09:09:28;101404.00;;;32.80
63220;BMP180;49320;52.512;13.448;2023-06-10T09:11:58;101403.00;;;32.80
63220;BMP180;49320;52.512;13.448;2023-06-10T09:14:25;101397.00;;;32.90
63220;BMP180;49320;52.512;13.448;2023-06-10T09:16:52;101395.00;;;32.90
63220;BMP180;49320;52.512;13.448;2023-06-10T09:19:26;101393.00;;;33.00
63220;BMP180;49320;52.512;13.448;2023-06-10T09:21:54;101403.00;;;33.00
63220;BMP180;49320;52.512;13.448;2023-06-10T09:24:25;101403.00;;;33.00
63220;BMP180;49320;52.512;13.448;2023-06-10T09:27:06;101406.00;;;32.90
63220;BMP180;49320;52.512;13.448;2023-06-10T09:30:06;101413.00;;;32.80
63220;BMP180;49320;52.512;13.448;2023-06-10T09:32:39;101409.00;;;32.60
63220;BMP180;49320;52.512;13.448;2023-06-10T09:35:09;101410.00;;;32.40
63220;BMP180;49320;52.512;13.448;2023-06-10T09:37:38;101415.00;;;32.30
63220;BMP180;49320;52.512;13.448;2023-06-10T09:40:07;101412.00;;;32.10
63220;BMP180;49320;52.512;13.448;2023-06-10T09:42:38;101424.00;;;31.90
63220;BMP180;49320;52.512;13.448;2023-06-10T09:45:07;101417.00;;;31.60
63220;BMP180;49320;52.512;13.448;2023-06-10T09:47:34;101419.00;;;31.50
63220;BMP180;49320;52.512;13.448;2023-06-10T09:50:02;101414.00;;;31.30
63220;BMP180;49320;52.512;13.448;2023-06-10T09:52:29;101419.00;;;31.20
63220;BMP180;49320;52.512;13.448;2023-06-10T09:55:01;101424.00;;;31.10
63220;BMP180;49320;52.512;13.448;2023-06-10T09:57:32;101419.00;;;31.00
63220;BMP180;49320;52.512;13.448;2023-06-10T10:00:05;101402.00;;;31.00
63220;BMP180;49320;52.512;13.448;2023-06-10T10:02:53;101411.00;;;30.90
63220;BMP180;49320;52.512;13.448;2023-06-10T10:05:23;101402.00;;;30.90
63220;BMP180;49320;52.512;13.448;2023-06-10T10:07:51;101402.00;;;30.90
63220;BMP180;49320;52.512;13.448;2023-06-10T10:10:20;101408.00;;;31.00
63220;BMP180;49320;52.512;13.448;2023-06-10T10:12:54;101403.00;;;31.00
63220;BMP180;49320;52.512;13.448;2023-06-10T10:15:29;101403.00;;;31.00
63220;BMP180;49320;52.512;13.448;2023-06-10T10:18:14;101410.00;;;31.00
63220;BMP180;49320;52.512;13.448;2023-06-10T10:20:51;101412.00;;;31.00
63220;BMP180;49320;52.512;13.448;2023-06-10T10:23:38;101414.00;;;31.10
63220;BMP180;49320;52.512;13.448;2023-06-10T10:26:10;101412.00;;;31.20
63220;BMP180;49320;52.512;13.448;2023-06-10T10:28:45;101411.00;;;31.20
63220;BMP180;49320;52.512;13.448;2023-06-10T10:31:18;101403.00;;;31.20
63220;BMP180;49320;52.512;13.448;2023-06-10T10:33:55;101410.00;;;31.20
63220;BMP180;49320;52.512;13.448;2023-06-10T10:36:25;101409.00;;;31.20
63220;BMP180;49320;52.512;13.448;2023-06-10T10:38:54;101415.00;;;31.20
63220;BMP180;49320;52.512;13.448;2023-06-10T10:41:21;101390.00;;;31.30
63220;BMP180;49320;52.512;13.448;2023-06-10T10:43:50;101406.00;;;31.30
63220;BMP180;49320;52.512;13.448;2023-06-10T10:46:18;101395.00;;;31.40
63220;BMP180;49320;52.512;13.448;2023-06-10T10:48:52;101395.00;;;31.50
63220;BMP180;49320;52.512;13.448;2023-06-10T10:51:19;101379.00;;;31.60
63220;BMP180;49320;52.512;13.448;2023-06-10T10:54:10;101381.00;;;31.70
63220;BMP180;49320;52.512;13.448;2023-06-10T10:56:38;101384.00;;;31.80
63220;BMP180;49320;52.512;13.448;2023-06-10T10:59:06;101369.00;;;31.90
63220;BMP180;49320;52.512;13.448;2023-06-10T11:01:41;101375.00;;;31.90
63220;BMP180;49320;52.512;13.448;2023-06-10T11:04:09;101373.00;;;31.90
63220;BMP180;49320;52.512;13.448;2023-06-10T11:06:36;101365.00;;;31.90
63220;BMP180;49320;52.512;13.448;2023-06-10T11:09:26;101361.00;;;32.00
63220;BMP180;49320;52.512;13.448;2023-06-10T11:11:58;101366.00;;;32.00
63220;BMP180;49320;52.512;13.448;2023-06-10T11:14:29;101361.00;;;32.20
63220;BMP180;49320;52.512;13.448;2023-06-10T11:16:59;101351.00;;;32.30
63220;BMP180;49320;52.512;13.448;2023-06-10T11:19:38;101359.00;;;32.50
63220;BMP180;49320;52.512;13.448;2023-06-10T11:22:08;101363.00;;;32.60
63220;BMP180;49320;52.512;13.448;2023-06-10T11:24:37;101345.00;;;32.60
63220;BMP180;49320;52.512;13.448;2023-06-10T11:27:23;101360.00;;;32.70
63220;BMP180;49320;52.512;13.448;2023-06-10T11:30:18;101355.00;;;32.80
63220;BMP180;49320;52.512;13.448;2023-06-10T11:32:51;101359.00;;;32.90
63220;BMP180;49320;52.512;13.448;2023-06-10T11:35:19;101360.00;;;33.00
63220;BMP180;49320;52.512;13.448;2023-06-10T11:37:48;101361.00;;;33.10
63220;BMP180;49320;52.512;13.448;2023-06-10T11:40:15;101350.00;;;33.10
63220;BMP180;49320;52.512;13.448;2023-06-10T11:42:43;101350.00;;;33.20
63220;BMP180;49320;52.512;13.448;2023-06-10T11:45:15;101351.00;;;33.30
63220;BMP180;49320;52.512;13.448;2023-06-10T11:47:59;101374.00;;;33.40
63220;BMP180;49320;52.512;13.448;2023-06-10T11:50:33;101373.00;;;33.50
63220;BMP180;49320;52.512;13.448;2023-06-10T11:53:00;101363.00;;;33.50
63220;BMP180;49320;52.512;13.448;2023-06-10T11:55:50;101366.00;;;33.50
63220;BMP180;49320;52.512;13.448;2023-06-10T11:58:20;101377.00;;;33.50
63220;BMP180;49320;52.512;13.448;2023-06-10T12:00:52;101364.00;;;33.60
63220;BMP180;49320;52.512;13.448;2023-06-10T12:03:36;101368.00;;;33.60
63220;BMP180;49320;52.512;13.448;2023-06-10T12:06:06;101361.00;;;33.50
63220;BMP180;49320;52.512;13.448;2023-06-10T12:08:41;101366.00;;;33.50
63220;BMP180;49320;52.512;13.448;2023-06-10T12:11:09;101361.00;;;33.50
63220;BMP180;49320;52.512;13.448;2023-06-10T12:13:36;101363.00;;;33.40
63220;BMP180;49320;52.512;13.448;2023-06-10T12:16:08;101371.00;;;33.40
63220;BMP180;49320;52.512;13.448;2023-06-10T12:18:35;101363.00;;;33.40
63220;BMP180;49320;52.512;13.448;2023-06-10T12:21:02;101362.00;;;33.40
63220;BMP180;49320;52.512;13.448;2023-06-10T12:23:30;101345.00;;;33.40
63220;BMP180;49320;52.512;13.448;2023-06-10T12:25:59;101360.00;;;33.50
63220;BMP180;49320;52.512;13.448;2023-06-10T12:28:26;101351.00;;;33.60
63220;BMP180;49320;52.512;13.448;2023-06-10T12:31:07;101364.00;;;33.60
63220;BMP180;49320;52.512;13.448;2023-06-10T12:33:34;101343.00;;;33.60
63220;BMP180;49320;52.512;13.448;2023-06-10T12:36:02;101340.00;;;33.70
63220;BMP180;49320;52.512;13.448;2023-06-10T12:38:28;101339.00;;;33.80
63220;BMP180;49320;52.512;13.448;2023-06-10T12:41:02;101334.00;;;33.80
63220;BMP180;49320;52.512;13.448;2023-06-10T12:43:31;101339.00;;;33.90
63220;BMP180;49320;52.512;13.448;2023-06-10T12:46:09;101332.00;;;34.00
63220;BMP180;49320;52.512;13.448;2023-06-10T12:48:50;101331.00;;;34.10
63220;BMP180;49320;52.512;13.448;2023-06-10T12:51:21;101314.00;;;34.10
63220;BMP180;49320;52.512;13.448;2023-06-10T12:53:48;101320.00;;;34.20
63220;BMP180;49320;52.512;13.448;2023-06-10T12:56:15;101319.00;;;34.20
63220;BMP180;49320;52.512;13.448;2023-06-10T12:58:42;101320.00;;;34.30
63220;BMP180;49320;52.512;13.448;2023-06-10T13:01:12;101320.00;;;34.30
63220;BMP180;49320;52.512;13.448;2023-06-10T13:03:39;101319.00;;;34.30
63220;BMP180;49320;52.512;13.448;2023-06-10T13:06:07;101313.00;;;34.40
63220;BMP180;49320;52.512;13.448;2023-06-10T13:08:33;101318.00;;;34.40
63220;BMP180;49320;52.512;13.448;2023-06-10T13:11:00;101307.00;;;34.40
63220;BMP180;49320;52.512;13.448;2023-06-10T13:13:27;101303.00;;;34.40
63220;BMP180;49320;52.512;13.448;2023-06-10T13:15:55;101303.00;;;34.40
63220;BMP180;49320;52.512;13.448;2023-06-10T13:18:22;101295.00;;;34.50
63220;BMP180;49320;52.512;13.448;2023-06-10T13:20:49;101296.00;;;34.50
63220;BMP180;49320;52.512;13.448;2023-06-10T13:23:16;101303.00;;;34.50
63220;BMP180;49320;52.512;13.448;2023-06-10T13:25:43;101309.00;;;34.60
63220;BMP180;49320;52.512;13.448;2023-06-10T13:28:11;101302.00;;;34.60
63220;BMP180;49320;52.512;13.448;2023-06-10T13:30:38;101309.00;;;34.60
63220;BMP180;49320;52.512;13.448;2023-06-10T13:33:05;101308.00;;;34.60
63220;BMP180;49320;52.512;13.448;2023-06-10T13:35:32;101303.00;;;34.60
63220;BMP180;49320;52.512;13.448;2023-06-10T13:37:59;101296.00;;;34.60
63220;BMP180;49320;52.512;13.448;2023-06-10T13:40:25;101285.00;;;34.70
63220;BMP180;49320;52.512;13.448;2023-06-10T13:42:52;101299.00;;;34.70
63220;BMP180;49320;52.512;13.448;2023-06-10T13:45:20;101278.00;;;34.80
63220;BMP180;49320;52.512;13.448;2023-06-10T13:47:47;101275.00;;;34.90
63220;BMP180;49320;52.512;13.448;2023-06-10T13:50:14;101296.00;;;34.90
63220;BMP180;49320;52.512;13.448;2023-06-10T13:52:41;101269.00;;;35.00
63220;BMP180;49320;52.512;13.448;2023-06-10T13:55:08;101278.00;;;35.00
63220;BMP180;49320;52.512;13.448;2023-06-10T13:57:36;101283.00;;;34.90
63220;BMP180;49320;52.512;13.448;2023-06-10T14:00:04;101281.00;;;35.00